Flight Track Log - Related Links

Times and Time Zones

All times are in EDT time to prevent confusion due to time zone crossing. See the ASQ6151 flight status page for this flight to view local times or setup timezone preferences in your user account.


Time Position Orientation Groundspeed Altitude Reporting Facility
EDT Latitude Longitude Course Direction KTS MPH feet Rate Location/Type
Thu 10:42:00 PM 41.9260 -88.9073 217° Southwest  Level FlightAware Approximate
Thu 10:43:00 PM 41.8473 -88.9814 213° Southwest  Level FlightAware Approximate
Thu 10:44:00 PM 41.7665 -89.0515 213° Southwest  Level FlightAware Approximate
Thu 10:45:00 PM 41.6858 -89.1214 213° Southwest  Level FlightAware Approximate
Thu 10:46:00 PM 41.6047 -89.1906 212° Southwest  Level FlightAware Approximate
Thu 10:47:00 PM 41.5236 -89.2597 217° Southwest  Level FlightAware Approximate
Thu 10:48:00 PM 41.4431 -89.3298 213° Southwest  Level FlightAware Approximate
Thu 10:49:00 PM 41.3625 -89.3996 210° Southwest  Level FlightAware Approximate
Thu 10:50:00 PM 41.2794 -89.4642 210° Southwest  Level FlightAware Approximate
Thu 10:51:00 PM 41.1992 -89.5342 217° Southwest  Level FlightAware Approximate
Thu 10:52:00 PM 41.1155 -89.5883 186° South  Level FlightAware Approximate
Thu 10:53:00 PM 41.0226 -89.6108 217° Southwest  Level FlightAware Approximate
Thu 10:54:00 PM 40.9283 -89.6277 185° South  Level FlightAware Approximate
Thu 10:55:00 PM 40.8338 -89.6498 194° South  Level FlightAware Approximate
Thu 10:56:00 PM 40.7384 -89.6623 189° South  Level FlightAware Approximate
Thu 10:57:00 PM 40.6642 -89.6933 191° South  Level Estimated
Thu 10:58:00 PM 40.6642 -89.6933 191° South  Level Estimated
Thu 10:59:00 PM 40.6642 -89.6933 191° South  Level Estimated
Thu 11:00:00 PM 40.6642 -89.6933 191° South  Level Estimated
Thu 11:01:00 PM 40.6642 -89.6933 191° South  Level Estimated
Thu 11:02:00 PM 40.6642 -89.6933 191° South  Level Estimated
Thu 11:03:00 PM 40.6642 -89.6933 191° South  Level Estimated
Thu 11:04:00 PM 40.6642 -89.6933 191° South  Level Estimated
Thu 11:05:00 PM 40.6642 -89.6933 191° South  Level Estimated
Thu 11:06:00 PM 40.6642 -89.6933 191° South  Level Estimated
Thu 11:07:00 PM 40.6642 -89.6933 191° South  Level Estimated
Thu 11:08:00 PM 40.6642 -89.6933 191° South  Level Estimated
Thu 11:09:00 PM 40.6642 -89.6933 191° South  Level Estimated
Thu 11:10:00 PM 40.6642 -89.6933 191° South  Level Estimated
Thu 11:11:00 PM 40.6642 -89.6933 191° South  Level Estimated
Thu 11:12:00 PM 40.6642 -89.6933 191° South  Level Estimated
Thu 11:13:00 PM 40.6642 -89.6933 191° South  Level Estimated

Login

Don't have an account? Register now (free) for customized features, flight alerts, and more!